createdAt,value
2022-08-28T00:02:03.367Z,3.38
2022-08-28T00:08:05.980Z,3.13
2022-08-28T00:14:09.968Z,3.72
2022-08-28T00:20:13.913Z,3.58
2022-08-28T00:26:35.629Z,3.45
2022-08-28T00:32:37.386Z,4.03
2022-08-28T00:38:39.094Z,3.58
2022-08-28T00:44:44.647Z,3.65
2022-08-28T00:51:05.165Z,3.40
2022-08-28T00:57:13.237Z,3.47
2022-08-28T01:03:15.029Z,3.40
2022-08-28T01:09:20.937Z,3.70
2022-08-28T01:15:29.749Z,3.22
2022-08-28T01:21:43.501Z,3.33
2022-08-28T01:27:45.891Z,3.90
2022-08-28T01:33:48.582Z,4.43
2022-08-28T01:39:50.400Z,3.42
2022-08-28T01:45:56.131Z,3.90
2022-08-28T01:51:58.320Z,3.15
2022-08-28T01:58:00.073Z,3.67
2022-08-28T02:04:04.452Z,3.35
2022-08-28T02:10:08.575Z,3.13
2022-08-28T02:16:11.009Z,3.50
2022-08-28T02:22:13.607Z,3.92
2022-08-28T02:28:15.340Z,3.85
2022-08-28T02:34:17.045Z,3.15
2022-08-28T02:40:21.506Z,3.33
2022-08-28T02:46:23.504Z,3.17
2022-08-28T02:52:25.328Z,3.13
2022-08-28T02:58:27.299Z,4.85
2022-08-28T03:04:29.056Z,3.75
2022-08-28T03:10:30.999Z,3.33
2022-08-28T03:16:34.159Z,3.13
2022-08-28T03:22:54.246Z,2.78
2022-08-28T03:28:57.665Z,3.17
2022-08-28T03:35:02.008Z,3.10
2022-08-28T03:41:03.844Z,3.10
2022-08-28T03:47:06.125Z,2.90
2022-08-28T03:53:07.853Z,3.50
2022-08-28T03:59:09.564Z,3.95
2022-08-28T04:05:11.897Z,2.92
2022-08-28T04:11:13.742Z,3.50
2022-08-28T04:17:16.169Z,3.50
2022-08-28T04:23:17.916Z,3.15
2022-08-28T04:29:19.740Z,3.30
2022-08-28T04:35:21.506Z,3.22
2022-08-28T04:41:23.213Z,3.30
2022-08-28T04:47:25.209Z,3.28
2022-08-28T04:53:27.436Z,3.22
2022-08-28T04:59:29.787Z,3.40
2022-08-28T05:05:31.935Z,3.22
2022-08-28T05:11:35.134Z,4.13
2022-08-28T05:17:37.057Z,2.50
2022-08-28T05:23:38.940Z,3.20
2022-08-28T05:29:40.656Z,3.70
2022-08-28T05:35:44.719Z,2.97
2022-08-28T05:41:47.232Z,2.95
2022-08-28T05:47:49.208Z,3.30
2022-08-28T05:53:51.051Z,3.40
2022-08-28T05:59:53.672Z,2.58
2022-08-28T06:05:55.993Z,2.70
2022-08-28T06:12:01.765Z,2.75
2022-08-28T06:18:03.907Z,2.45
2022-08-28T06:24:06.202Z,3.35
2022-08-28T06:30:08.905Z,2.40
2022-08-28T06:36:11.321Z,2.50
2022-08-28T06:42:13.117Z,2.75
2022-08-28T06:48:17.777Z,2.55
2022-08-28T06:54:22.807Z,2.67
2022-08-28T07:00:25.257Z,2.92
2022-08-28T07:06:30.497Z,1.90
2022-08-28T07:12:32.219Z,2.90
2022-08-28T07:18:34.222Z,2.40
2022-08-28T07:24:36.152Z,2.22
2022-08-28T07:30:37.888Z,2.40
2022-08-28T07:36:41.372Z,1.98
2022-08-28T07:43:02.024Z,2.20
2022-08-28T07:49:04.649Z,2.10
2022-08-28T07:55:08.705Z,2.15
2022-08-28T08:01:11.970Z,2.10
2022-08-28T08:07:14.419Z,2.17
2022-08-28T08:13:16.126Z,2.05
2022-08-28T08:19:18.866Z,2.10
2022-08-28T08:25:20.543Z,2.08
2022-08-28T08:31:26.634Z,1.85
2022-08-28T08:37:28.494Z,2.13
2022-08-28T08:43:34.067Z,2.60
2022-08-28T08:49:40.579Z,1.80
2022-08-28T08:55:48.065Z,2.10
2022-08-28T09:02:08.522Z,2.22
2022-08-28T09:08:21.418Z,1.80
2022-08-28T09:14:33.555Z,2.50
2022-08-28T09:20:35.331Z,2.10
2022-08-28T09:26:37.308Z,2.17
2022-08-28T09:32:46.766Z,2.00
2022-08-28T09:39:08.824Z,2.53
2022-08-28T09:45:20.567Z,2.00
2022-08-28T09:51:22.246Z,2.38
2022-08-28T09:57:24.000Z,1.73
2022-08-28T10:03:49.193Z,2.40
2022-08-28T10:10:17.780Z,2.05
2022-08-28T10:16:31.901Z,2.20
2022-08-28T10:22:56.398Z,1.75
2022-08-28T10:29:22.781Z,2.15
2022-08-28T10:35:53.027Z,2.05
2022-08-28T10:42:02.010Z,1.73
2022-08-28T10:48:17.475Z,2.20
2022-08-28T10:54:44.557Z,2.00
2022-08-28T11:00:47.146Z,1.73
2022-08-28T11:06:54.877Z,1.70
2022-08-28T11:12:56.956Z,1.52
2022-08-28T11:19:09.828Z,1.98
2022-08-28T11:25:26.369Z,2.15
2022-08-28T11:31:37.641Z,2.08
2022-08-28T11:37:47.829Z,1.75
2022-08-28T11:44:14.492Z,1.90
2022-08-28T11:50:25.951Z,1.98
2022-08-28T11:56:53.018Z,1.50
2022-08-28T12:03:12.018Z,1.63
2022-08-28T12:09:25.852Z,2.22
2022-08-28T12:21:30.953Z,1.40
2022-08-28T12:27:38.363Z,1.80
2022-08-28T12:33:40.028Z,1.50
2022-08-28T12:39:42.852Z,1.77
2022-08-28T12:45:57.348Z,1.47
2022-08-28T12:52:20.130Z,1.77
2022-08-28T12:58:37.296Z,1.98
2022-08-28T13:05:03.691Z,1.73
2022-08-28T13:11:07.309Z,1.48
2022-08-28T13:17:10.153Z,1.52
2022-08-28T13:23:29.618Z,1.30
2022-08-28T13:29:31.610Z,1.60
2022-08-28T13:35:36.896Z,1.40
2022-08-28T13:41:39.012Z,1.52
2022-08-28T13:47:41.313Z,1.45
2022-08-28T13:53:43.142Z,1.40
2022-08-28T13:59:45.432Z,1.98
2022-08-28T14:05:47.148Z,1.50
2022-08-28T14:11:49.718Z,1.40
2022-08-28T14:17:51.440Z,1.23
2022-08-28T14:23:53.385Z,1.35
2022-08-28T14:29:55.201Z,1.50
2022-08-28T14:35:57.239Z,1.70
2022-08-28T14:41:59.444Z,1.58
2022-08-28T14:48:01.146Z,1.70
2022-08-28T14:54:03.375Z,1.50
2022-08-28T15:00:05.739Z,1.52
2022-08-28T15:06:09.829Z,1.58
2022-08-28T15:12:11.825Z,1.35
2022-08-28T15:18:14.059Z,1.20
2022-08-28T15:24:18.371Z,1.50
2022-08-28T15:30:20.277Z,1.42
2022-08-28T15:36:23.039Z,1.60
2022-08-28T15:42:24.959Z,1.73
2022-08-28T15:48:26.686Z,1.58
2022-08-28T15:54:28.481Z,1.30
2022-08-28T16:00:30.198Z,1.67
2022-08-28T16:06:32.031Z,1.85
2022-08-28T16:12:35.109Z,1.45
2022-08-28T16:18:37.151Z,1.52
2022-08-28T16:24:39.031Z,1.70
2022-08-28T16:30:43.762Z,1.30
2022-08-28T16:36:48.228Z,1.50
2022-08-28T16:42:51.783Z,1.63
2022-08-28T16:48:55.445Z,1.83
2022-08-28T16:54:57.320Z,1.35
2022-08-28T17:01:00.021Z,1.63
2022-08-28T17:07:02.629Z,1.53
2022-08-28T17:13:04.446Z,1.70
2022-08-28T17:19:06.153Z,2.03
2022-08-28T17:25:13.605Z,1.83
2022-08-28T17:31:15.714Z,1.80
2022-08-28T17:37:19.064Z,1.85
2022-08-28T17:43:21.237Z,1.58
2022-08-28T17:49:23.029Z,1.60
2022-08-28T17:55:24.754Z,1.70
2022-08-28T18:01:27.172Z,2.13
2022-08-28T18:07:28.962Z,2.53
2022-08-28T18:13:31.849Z,2.38
2022-08-28T18:19:33.587Z,2.75
2022-08-28T18:25:50.959Z,2.90
2022-08-28T18:31:52.947Z,2.55
2022-08-28T18:37:54.833Z,2.83
2022-08-28T18:43:57.629Z,3.08
2022-08-28T18:50:06.492Z,3.20
2022-08-28T18:56:08.697Z,3.23
2022-08-28T19:02:12.912Z,3.45
2022-08-28T19:08:15.023Z,3.42
2022-08-28T19:14:16.865Z,4.03
2022-08-28T19:20:20.639Z,3.55
2022-08-28T19:26:22.443Z,3.97
2022-08-28T19:32:27.182Z,3.10
2022-08-28T19:38:29.490Z,3.00
2022-08-28T19:44:32.621Z,3.35
2022-08-28T19:50:34.499Z,2.65
2022-08-28T19:56:37.306Z,3.00
2022-08-28T20:02:39.132Z,2.80
2022-08-28T20:08:40.961Z,3.35
2022-08-28T20:14:42.707Z,2.72
2022-08-28T20:20:46.265Z,2.92
2022-08-28T20:26:49.256Z,2.78
2022-08-28T20:32:51.380Z,2.97
2022-08-28T20:38:53.454Z,3.10
2022-08-28T20:44:57.315Z,2.93
2022-08-28T20:50:59.836Z,4.30
2022-08-28T20:57:05.367Z,2.83
2022-08-28T21:03:12.054Z,2.95
2022-08-28T21:09:15.273Z,2.83
2022-08-28T21:15:17.050Z,2.90
2022-08-28T21:21:18.816Z,2.88
2022-08-28T21:27:22.214Z,2.97
2022-08-28T21:33:24.720Z,2.78
2022-08-28T21:39:26.451Z,2.20
2022-08-28T21:45:28.317Z,2.47
2022-08-28T21:51:30.226Z,2.53
2022-08-28T21:57:32.235Z,2.65
2022-08-28T22:03:34.111Z,2.88
2022-08-28T22:09:35.823Z,2.85
2022-08-28T22:15:43.898Z,2.70
2022-08-28T22:22:05.219Z,3.20
2022-08-28T22:28:07.677Z,2.33
2022-08-28T22:34:10.247Z,2.47
2022-08-28T22:40:13.421Z,2.47
2022-08-28T22:46:15.727Z,2.50
2022-08-28T22:52:17.831Z,2.70
2022-08-28T22:58:19.566Z,2.10
2022-08-28T23:04:21.330Z,2.40
2022-08-28T23:10:36.934Z,2.50
2022-08-28T23:16:45.407Z,2.28
2022-08-28T23:22:47.425Z,2.70
2022-08-28T23:28:49.202Z,2.50
2022-08-28T23:34:51.009Z,2.40
2022-08-28T23:40:52.765Z,2.20
2022-08-28T23:46:54.500Z,2.22
2022-08-28T23:52:58.031Z,2.50
2022-08-28T23:59:00.454Z,3.20
